sensor_id;sensor_type;location;lat;lon;timestamp;temperature;humidity
9103;DHT22;4587;51.434;6.788;2023-02-01T00:02:23;6.40;99.90
9103;DHT22;4587;51.434;6.788;2023-02-01T00:04:49;6.40;99.90
9103;DHT22;4587;51.434;6.788;2023-02-01T00:07:15;6.50;99.90
9103;DHT22;4587;51.434;6.788;2023-02-01T00:09:40;6.50;99.90
9103;DHT22;4587;51.434;6.788;2023-02-01T00:12:06;6.50;99.90
9103;DHT22;4587;51.434;6.788;2023-02-01T00:14:31;6.50;99.90
9103;DHT22;4587;51.434;6.788;2023-02-01T00:17:04;6.60;99.90
9103;DHT22;4587;51.434;6.788;2023-02-01T00:19:30;6.60;99.90
9103;DHT22;4587;51.434;6.788;2023-02-01T00:21:55;6.60;99.90
9103;DHT22;4587;51.434;6.788;2023-02-01T00:24:21;6.70;99.90
9103;DHT22;4587;51.434;6.788;2023-02-01T00:26:46;6.70;99.90
9103;DHT22;4587;51.434;6.788;2023-02-01T00:29:18;6.70;99.90
9103;DHT22;4587;51.434;6.788;2023-02-01T00:31:44;6.60;99.90
9103;DHT22;4587;51.434;6.788;2023-02-01T00:34:12;6.60;99.90
9103;DHT22;4587;51.434;6.788;2023-02-01T00:36:38;6.60;99.90
9103;DHT22;4587;51.434;6.788;2023-02-01T00:39:04;6.50;99.90
9103;DHT22;4587;51.434;6.788;2023-02-01T00:41:30;6.50;99.90
9103;DHT22;4587;51.434;6.788;2023-02-01T00:43:55;6.60;99.90
9103;DHT22;4587;51.434;6.788;2023-02-01T00:46:21;6.70;99.90
9103;DHT22;4587;51.434;6.788;2023-02-01T00:48:47;6.80;99.90
9103;DHT22;4587;51.434;6.788;2023-02-01T00:51:17;6.70;99.90
9103;DHT22;4587;51.434;6.788;2023-02-01T00:53:42;6.70;99.90
9103;DHT22;4587;51.434;6.788;2023-02-01T00:56:09;6.70;99.90
9103;DHT22;4587;51.434;6.788;2023-02-01T00:58:35;6.60;99.90
9103;DHT22;4587;51.434;6.788;2023-02-01T01:01:18;6.70;99.90
9103;DHT22;4587;51.434;6.788;2023-02-01T01:03:47;6.80;99.90
9103;DHT22;4587;51.434;6.788;2023-02-01T01:06:14;6.80;99.90
9103;DHT22;4587;51.434;6.788;2023-02-01T01:08:41;6.70;99.90
9103;DHT22;4587;51.434;6.788;2023-02-01T01:11:12;6.80;99.90
9103;DHT22;4587;51.434;6.788;2023-02-01T01:13:39;6.90;99.90
9103;DHT22;4587;51.434;6.788;2023-02-01T01:16:06;6.90;99.90
9103;DHT22;4587;51.434;6.788;2023-02-01T01:18:32;6.90;99.90
9103;DHT22;4587;51.434;6.788;2023-02-01T01:20:58;6.90;99.90
9103;DHT22;4587;51.434;6.788;2023-02-01T01:23:24;6.90;99.90
9103;DHT22;4587;51.434;6.788;2023-02-01T01:25:50;6.90;99.90
9103;DHT22;4587;51.434;6.788;2023-02-01T01:28:16;6.80;99.90
9103;DHT22;4587;51.434;6.788;2023-02-01T01:30:41;6.90;99.90
9103;DHT22;4587;51.434;6.788;2023-02-01T01:33:07;6.80;99.90
9103;DHT22;4587;51.434;6.788;2023-02-01T01:35:33;7.00;99.90
9103;DHT22;4587;51.434;6.788;2023-02-01T01:37:59;6.90;99.90
9103;DHT22;4587;51.434;6.788;2023-02-01T01:40:26;6.90;99.90
9103;DHT22;4587;51.434;6.788;2023-02-01T01:42:51;6.90;99.90
9103;DHT22;4587;51.434;6.788;2023-02-01T01:47:56;6.80;99.90
9103;DHT22;4587;51.434;6.788;2023-02-01T01:50:50;6.80;99.90
9103;DHT22;4587;51.434;6.788;2023-02-01T01:53:22;6.90;99.90
9103;DHT22;4587;51.434;6.788;2023-02-01T01:55:50;6.80;99.90
9103;DHT22;4587;51.434;6.788;2023-02-01T01:58:19;6.80;99.90
9103;DHT22;4587;51.434;6.788;2023-02-01T02:00:47;6.80;99.90
9103;DHT22;4587;51.434;6.788;2023-02-01T02:03:40;6.80;99.90
9103;DHT22;4587;51.434;6.788;2023-02-01T02:06:18;6.80;99.90
9103;DHT22;4587;51.434;6.788;2023-02-01T02:08:45;6.70;99.90
9103;DHT22;4587;51.434;6.788;2023-02-01T02:11:12;6.80;99.90
9103;DHT22;4587;51.434;6.788;2023-02-01T02:13:46;6.70;99.90
9103;DHT22;4587;51.434;6.788;2023-02-01T02:16:21;6.60;99.90
9103;DHT22;4587;51.434;6.788;2023-02-01T02:21:42;6.50;99.90
9103;DHT22;4587;51.434;6.788;2023-02-01T02:35:58;6.20;99.90
9103;DHT22;4587;51.434;6.788;2023-02-01T02:38:33;6.20;99.90
9103;DHT22;4587;51.434;6.788;2023-02-01T02:41:26;6.10;99.90
9103;DHT22;4587;51.434;6.788;2023-02-01T02:44:23;6.10;99.90
9103;DHT22;4587;51.434;6.788;2023-02-01T02:47:22;6.10;99.90
9103;DHT22;4587;51.434;6.788;2023-02-01T02:49:56;6.10;99.90
9103;DHT22;4587;51.434;6.788;2023-02-01T02:52:46;6.10;99.90
9103;DHT22;4587;51.434;6.788;2023-02-01T02:55:34;6.00;99.90
9103;DHT22;4587;51.434;6.788;2023-02-01T02:58:03;6.00;99.90
9103;DHT22;4587;51.434;6.788;2023-02-01T03:00:49;6.10;99.90
9103;DHT22;4587;51.434;6.788;2023-02-01T03:03:37;6.00;99.90
9103;DHT22;4587;51.434;6.788;2023-02-01T03:06:23;6.10;99.90
9103;DHT22;4587;51.434;6.788;2023-02-01T03:08:48;6.20;99.90
9103;DHT22;4587;51.434;6.788;2023-02-01T03:11:19;6.10;99.90
9103;DHT22;4587;51.434;6.788;2023-02-01T03:14:00;6.10;99.90
9103;DHT22;4587;51.434;6.788;2023-02-01T03:16:40;6.10;99.90
9103;DHT22;4587;51.434;6.788;2023-02-01T03:19:30;6.10;99.90
9103;DHT22;4587;51.434;6.788;2023-02-01T03:21:59;6.20;99.90
9103;DHT22;4587;51.434;6.788;2023-02-01T03:32:31;6.30;99.90
9103;DHT22;4587;51.434;6.788;2023-02-01T03:35:17;6.30;99.90
9103;DHT22;4587;51.434;6.788;2023-02-01T03:37:44;6.30;99.90
9103;DHT22;4587;51.434;6.788;2023-02-01T03:40:11;6.40;99.90
9103;DHT22;4587;51.434;6.788;2023-02-01T03:42:42;6.30;99.90
9103;DHT22;4587;51.434;6.788;2023-02-01T03:45:18;6.30;99.90
9103;DHT22;4587;51.434;6.788;2023-02-01T03:47:49;6.30;99.90
9103;DHT22;4587;51.434;6.788;2023-02-01T03:50:17;6.40;99.90
9103;DHT22;4587;51.434;6.788;2023-02-01T03:55:22;6.40;99.90
9103;DHT22;4587;51.434;6.788;2023-02-01T03:57:58;6.40;99.90
9103;DHT22;4587;51.434;6.788;2023-02-01T04:00:26;6.40;99.90
9103;DHT22;4587;51.434;6.788;2023-02-01T04:02:53;6.40;99.90
9103;DHT22;4587;51.434;6.788;2023-02-01T04:05:19;6.30;99.90
9103;DHT22;4587;51.434;6.788;2023-02-01T04:07:45;6.40;99.90
9103;DHT22;4587;51.434;6.788;2023-02-01T04:10:11;6.40;99.90
9103;DHT22;4587;51.434;6.788;2023-02-01T04:12:38;6.50;99.90
9103;DHT22;4587;51.434;6.788;2023-02-01T04:15:04;6.30;99.90
9103;DHT22;4587;51.434;6.788;2023-02-01T04:17:30;6.30;99.90
9103;DHT22;4587;51.434;6.788;2023-02-01T04:19:55;6.30;99.90
9103;DHT22;4587;51.434;6.788;2023-02-01T04:22:21;6.20;99.90
9103;DHT22;4587;51.434;6.788;2023-02-01T04:24:47;6.20;99.90
9103;DHT22;4587;51.434;6.788;2023-02-01T04:27:13;6.10;99.90
9103;DHT22;4587;51.434;6.788;2023-02-01T04:29:39;6.20;99.90
9103;DHT22;4587;51.434;6.788;2023-02-01T04:32:05;6.20;99.90
9103;DHT22;4587;51.434;6.788;2023-02-01T04:34:30;6.30;99.90
9103;DHT22;4587;51.434;6.788;2023-02-01T04:36:56;6.30;99.90
9103;DHT22;4587;51.434;6.788;2023-02-01T04:39:22;6.30;99.90
9103;DHT22;4587;51.434;6.788;2023-02-01T04:41:48;6.40;99.90
9103;DHT22;4587;51.434;6.788;2023-02-01T04:44:15;6.40;99.90
9103;DHT22;4587;51.434;6.788;2023-02-01T04:46:41;6.50;99.90
9103;DHT22;4587;51.434;6.788;2023-02-01T04:49:09;6.50;99.90
9103;DHT22;4587;51.434;6.788;2023-02-01T04:51:35;6.50;99.90
9103;DHT22;4587;51.434;6.788;2023-02-01T04:54:00;6.40;99.90
9103;DHT22;4587;51.434;6.788;2023-02-01T04:56:26;6.50;99.90
9103;DHT22;4587;51.434;6.788;2023-02-01T04:58:52;6.40;99.90
9103;DHT22;4587;51.434;6.788;2023-02-01T05:01:17;6.40;99.90
9103;DHT22;4587;51.434;6.788;2023-02-01T05:03:43;6.40;99.90
9103;DHT22;4587;51.434;6.788;2023-02-01T05:06:09;6.40;99.90
9103;DHT22;4587;51.434;6.788;2023-02-01T05:08:34;6.40;99.90
9103;DHT22;4587;51.434;6.788;2023-02-01T05:11:00;6.40;99.90
9103;DHT22;4587;51.434;6.788;2023-02-01T05:13:28;6.30;99.90
9103;DHT22;4587;51.434;6.788;2023-02-01T05:16:12;6.30;99.90
9103;DHT22;4587;51.434;6.788;2023-02-01T05:18:37;6.20;99.90
9103;DHT22;4587;51.434;6.788;2023-02-01T05:21:03;6.20;99.90
9103;DHT22;4587;51.434;6.788;2023-02-01T05:23:29;6.10;99.90
9103;DHT22;4587;51.434;6.788;2023-02-01T05:26:01;6.10;99.90
9103;DHT22;4587;51.434;6.788;2023-02-01T05:28:27;6.00;99.90
9103;DHT22;4587;51.434;6.788;2023-02-01T05:30:54;6.00;99.90
9103;DHT22;4587;51.434;6.788;2023-02-01T05:33:20;6.10;99.90
9103;DHT22;4587;51.434;6.788;2023-02-01T05:35:46;6.10;99.90
9103;DHT22;4587;51.434;6.788;2023-02-01T05:38:11;6.10;99.90
9103;DHT22;4587;51.434;6.788;2023-02-01T05:40:37;6.20;99.90
9103;DHT22;4587;51.434;6.788;2023-02-01T05:43:02;6.10;99.90
9103;DHT22;4587;51.434;6.788;2023-02-01T05:45:28;6.00;99.90
9103;DHT22;4587;51.434;6.788;2023-02-01T05:47:53;6.00;99.90
9103;DHT22;4587;51.434;6.788;2023-02-01T05:50:19;6.00;99.90
9103;DHT22;4587;51.434;6.788;2023-02-01T05:52:44;6.00;99.90
9103;DHT22;4587;51.434;6.788;2023-02-01T05:55:10;6.00;99.90
9103;DHT22;4587;51.434;6.788;2023-02-01T05:57:36;5.90;99.90
9103;DHT22;4587;51.434;6.788;2023-02-01T06:00:02;5.90;99.90
9103;DHT22;4587;51.434;6.788;2023-02-01T06:02:27;5.90;99.90
9103;DHT22;4587;51.434;6.788;2023-02-01T06:04:53;6.00;99.90
9103;DHT22;4587;51.434;6.788;2023-02-01T06:07:19;6.00;99.90
9103;DHT22;4587;51.434;6.788;2023-02-01T06:09:44;6.10;99.90
9103;DHT22;4587;51.434;6.788;2023-02-01T06:12:10;6.10;99.90
9103;DHT22;4587;51.434;6.788;2023-02-01T06:14:35;6.10;99.90
9103;DHT22;4587;51.434;6.788;2023-02-01T06:17:02;6.10;99.90
9103;DHT22;4587;51.434;6.788;2023-02-01T06:19:28;6.30;99.90
9103;DHT22;4587;51.434;6.788;2023-02-01T06:21:53;6.30;99.90
9103;DHT22;4587;51.434;6.788;2023-02-01T06:24:19;6.30;99.90
9103;DHT22;4587;51.434;6.788;2023-02-01T06:26:45;6.40;99.90
9103;DHT22;4587;51.434;6.788;2023-02-01T06:29:11;6.40;99.90
9103;DHT22;4587;51.434;6.788;2023-02-01T06:31:36;6.40;99.90
9103;DHT22;4587;51.434;6.788;2023-02-01T06:34:02;6.50;99.90
9103;DHT22;4587;51.434;6.788;2023-02-01T06:36:28;6.50;99.90
9103;DHT22;4587;51.434;6.788;2023-02-01T06:38:55;6.50;99.90
9103;DHT22;4587;51.434;6.788;2023-02-01T06:41:22;6.50;99.90
9103;DHT22;4587;51.434;6.788;2023-02-01T06:43:48;6.50;99.90
9103;DHT22;4587;51.434;6.788;2023-02-01T06:46:14;6.60;99.90
9103;DHT22;4587;51.434;6.788;2023-02-01T06:48:40;6.60;99.90
9103;DHT22;4587;51.434;6.788;2023-02-01T06:51:05;6.60;99.90
9103;DHT22;4587;51.434;6.788;2023-02-01T06:53:31;6.70;99.90
9103;DHT22;4587;51.434;6.788;2023-02-01T06:55:59;6.80;99.90
9103;DHT22;4587;51.434;6.788;2023-02-01T06:58:29;6.70;99.90
9103;DHT22;4587;51.434;6.788;2023-02-01T07:00:55;6.70;99.90
9103;DHT22;4587;51.434;6.788;2023-02-01T07:03:21;6.70;99.90
9103;DHT22;4587;51.434;6.788;2023-02-01T07:05:46;6.80;99.90
9103;DHT22;4587;51.434;6.788;2023-02-01T07:08:12;6.80;99.90
9103;DHT22;4587;51.434;6.788;2023-02-01T07:10:38;6.80;99.90
9103;DHT22;4587;51.434;6.788;2023-02-01T07:13:03;6.80;99.90
9103;DHT22;4587;51.434;6.788;2023-02-01T07:15:29;6.80;99.90
9103;DHT22;4587;51.434;6.788;2023-02-01T07:17:55;6.80;99.90
9103;DHT22;4587;51.434;6.788;2023-02-01T07:20:21;6.80;99.90
9103;DHT22;4587;51.434;6.788;2023-02-01T07:22:46;6.90;99.90
9103;DHT22;4587;51.434;6.788;2023-02-01T07:25:12;6.80;99.90
9103;DHT22;4587;51.434;6.788;2023-02-01T07:27:37;6.80;99.90
9103;DHT22;4587;51.434;6.788;2023-02-01T07:30:04;6.80;99.90
9103;DHT22;4587;51.434;6.788;2023-02-01T07:32:30;6.90;99.90
9103;DHT22;4587;51.434;6.788;2023-02-01T07:34:56;6.90;99.90
9103;DHT22;4587;51.434;6.788;2023-02-01T07:37:22;6.80;99.90
9103;DHT22;4587;51.434;6.788;2023-02-01T07:39:52;6.90;99.90
9103;DHT22;4587;51.434;6.788;2023-02-01T07:42:18;6.90;99.90
9103;DHT22;4587;51.434;6.788;2023-02-01T07:44:43;7.00;99.90
9103;DHT22;4587;51.434;6.788;2023-02-01T07:47:09;6.90;99.90
9103;DHT22;4587;51.434;6.788;2023-02-01T07:49:35;6.90;99.90
9103;DHT22;4587;51.434;6.788;2023-02-01T07:52:00;6.90;99.90
9103;DHT22;4587;51.434;6.788;2023-02-01T07:54:26;7.00;99.90
9103;DHT22;4587;51.434;6.788;2023-02-01T07:56:51;7.00;99.90
9103;DHT22;4587;51.434;6.788;2023-02-01T07:59:17;7.00;99.90
9103;DHT22;4587;51.434;6.788;2023-02-01T08:01:43;7.00;99.90
9103;DHT22;4587;51.434;6.788;2023-02-01T08:04:12;7.00;99.90
9103;DHT22;4587;51.434;6.788;2023-02-01T08:06:39;7.00;99.90
9103;DHT22;4587;51.434;6.788;2023-02-01T08:09:06;7.10;99.90
9103;DHT22;4587;51.434;6.788;2023-02-01T08:11:33;7.10;99.90
9103;DHT22;4587;51.434;6.788;2023-02-01T08:13:58;7.00;99.90
9103;DHT22;4587;51.434;6.788;2023-02-01T08:16:24;7.00;99.90
9103;DHT22;4587;51.434;6.788;2023-02-01T08:18:51;7.00;99.90
9103;DHT22;4587;51.434;6.788;2023-02-01T08:21:23;7.10;99.90
9103;DHT22;4587;51.434;6.788;2023-02-01T08:23:49;7.20;99.90
9103;DHT22;4587;51.434;6.788;2023-02-01T08:26:21;7.10;99.90
9103;DHT22;4587;51.434;6.788;2023-02-01T08:28:50;7.20;99.90
9103;DHT22;4587;51.434;6.788;2023-02-01T08:31:18;7.20;99.90
9103;DHT22;4587;51.434;6.788;2023-02-01T08:33:50;7.30;99.90
9103;DHT22;4587;51.434;6.788;2023-02-01T08:36:16;7.20;99.90
9103;DHT22;4587;51.434;6.788;2023-02-01T08:38:42;7.20;99.90
9103;DHT22;4587;51.434;6.788;2023-02-01T08:41:10;7.30;99.90
9103;DHT22;4587;51.434;6.788;2023-02-01T08:43:36;7.30;99.90
9103;DHT22;4587;51.434;6.788;2023-02-01T08:46:03;7.30;99.90
9103;DHT22;4587;51.434;6.788;2023-02-01T08:48:29;7.30;99.90
9103;DHT22;4587;51.434;6.788;2023-02-01T08:50:55;7.40;99.90
9103;DHT22;4587;51.434;6.788;2023-02-01T08:53:20;7.40;99.90
9103;DHT22;4587;51.434;6.788;2023-02-01T08:55:46;7.50;99.90
9103;DHT22;4587;51.434;6.788;2023-02-01T08:58:13;7.50;99.90
9103;DHT22;4587;51.434;6.788;2023-02-01T09:00:40;7.50;99.90
9103;DHT22;4587;51.434;6.788;2023-02-01T09:03:05;7.50;99.90
9103;DHT22;4587;51.434;6.788;2023-02-01T09:05:31;7.50;99.90
9103;DHT22;4587;51.434;6.788;2023-02-01T09:07:57;7.50;99.90
9103;DHT22;4587;51.434;6.788;2023-02-01T09:10:22;7.50;99.90
9103;DHT22;4587;51.434;6.788;2023-02-01T09:12:48;7.60;99.90
9103;DHT22;4587;51.434;6.788;2023-02-01T09:15:13;7.50;99.90
9103;DHT22;4587;51.434;6.788;2023-02-01T09:17:39;7.50;99.90
9103;DHT22;4587;51.434;6.788;2023-02-01T09:20:08;7.40;99.90
9103;DHT22;4587;51.434;6.788;2023-02-01T09:22:34;7.50;99.90
9103;DHT22;4587;51.434;6.788;2023-02-01T09:24:59;7.40;99.90
9103;DHT22;4587;51.434;6.788;2023-02-01T09:27:25;7.40;99.90
9103;DHT22;4587;51.434;6.788;2023-02-01T09:29:51;7.40;99.90
9103;DHT22;4587;51.434;6.788;2023-02-01T09:32:20;7.50;99.90
9103;DHT22;4587;51.434;6.788;2023-02-01T09:34:45;7.60;99.90
9103;DHT22;4587;51.434;6.788;2023-02-01T09:37:11;7.60;99.90
9103;DHT22;4587;51.434;6.788;2023-02-01T09:39:36;7.60;99.90
9103;DHT22;4587;51.434;6.788;2023-02-01T09:47:24;7.90;99.90
9103;DHT22;4587;51.434;6.788;2023-02-01T09:50:11;7.90;99.90
9103;DHT22;4587;51.434;6.788;2023-02-01T09:52:43;7.90;99.90
9103;DHT22;4587;51.434;6.788;2023-02-01T09:55:40;8.00;99.90
9103;DHT22;4587;51.434;6.788;2023-02-01T09:58:16;8.10;99.90
9103;DHT22;4587;51.434;6.788;2023-02-01T10:00:53;8.10;99.90
9103;DHT22;4587;51.434;6.788;2023-02-01T10:03:19;8.20;99.90
9103;DHT22;4587;51.434;6.788;2023-02-01T10:09:08;8.30;99.90
9103;DHT22;4587;51.434;6.788;2023-02-01T10:20:20;8.60;99.90
9103;DHT22;4587;51.434;6.788;2023-02-01T10:25:54;8.70;99.90
9103;DHT22;4587;51.434;6.788;2023-02-01T10:28:20;8.60;99.90
9103;DHT22;4587;51.434;6.788;2023-02-01T10:30:48;8.70;99.90
9103;DHT22;4587;51.434;6.788;2023-02-01T10:33:18;8.60;99.90
9103;DHT22;4587;51.434;6.788;2023-02-01T10:35:45;8.60;99.90
9103;DHT22;4587;51.434;6.788;2023-02-01T10:38:30;8.50;99.90
9103;DHT22;4587;51.434;6.788;2023-02-01T10:41:03;8.40;99.90
9103;DHT22;4587;51.434;6.788;2023-02-01T10:43:34;8.30;99.90
9103;DHT22;4587;51.434;6.788;2023-02-01T10:46:00;8.30;99.90
9103;DHT22;4587;51.434;6.788;2023-02-01T10:48:26;8.30;99.90
9103;DHT22;4587;51.434;6.788;2023-02-01T10:50:56;8.30;99.90
9103;DHT22;4587;51.434;6.788;2023-02-01T10:53:35;8.40;99.90
9103;DHT22;4587;51.434;6.788;2023-02-01T10:56:12;8.40;99.90
9103;DHT22;4587;51.434;6.788;2023-02-01T10:58:45;8.40;99.90
9103;DHT22;4587;51.434;6.788;2023-02-01T11:01:21;8.40;99.90
9103;DHT22;4587;51.434;6.788;2023-02-01T11:04:04;8.40;99.90
9103;DHT22;4587;51.434;6.788;2023-02-01T11:06:32;8.40;99.90
9103;DHT22;4587;51.434;6.788;2023-02-01T11:09:01;8.50;99.90
9103;DHT22;4587;51.434;6.788;2023-02-01T11:16:58;8.80;99.90
9103;DHT22;4587;51.434;6.788;2023-02-01T11:19:25;8.90;99.90
9103;DHT22;4587;51.434;6.788;2023-02-01T11:21:53;8.80;99.90
9103;DHT22;4587;51.434;6.788;2023-02-01T11:24:27;8.80;99.90
9103;DHT22;4587;51.434;6.788;2023-02-01T11:26:59;8.70;99.90
9103;DHT22;4587;51.434;6.788;2023-02-01T11:29:26;8.70;99.90
9103;DHT22;4587;51.434;6.788;2023-02-01T11:31:58;8.70;99.90
9103;DHT22;4587;51.434;6.788;2023-02-01T11:34:28;8.60;99.90
9103;DHT22;4587;51.434;6.788;2023-02-01T11:36:58;8.70;99.90
9103;DHT22;4587;51.434;6.788;2023-02-01T11:39:29;8.70;99.90
9103;DHT22;4587;51.434;6.788;2023-02-01T11:42:14;8.80;99.90
9103;DHT22;4587;51.434;6.788;2023-02-01T11:44:45;8.80;99.90
9103;DHT22;4587;51.434;6.788;2023-02-01T11:47:26;8.80;99.90
9103;DHT22;4587;51.434;6.788;2023-02-01T11:50:00;8.80;99.90
9103;DHT22;4587;51.434;6.788;2023-02-01T11:55:49;8.60;99.90
9103;DHT22;4587;51.434;6.788;2023-02-01T11:58:35;8.60;99.90
9103;DHT22;4587;51.434;6.788;2023-02-01T12:01:37;8.50;99.90
9103;DHT22;4587;51.434;6.788;2023-02-01T12:06:56;8.50;99.90
9103;DHT22;4587;51.434;6.788;2023-02-01T12:12:25;8.40;99.90
9103;DHT22;4587;51.434;6.788;2023-02-01T12:18:00;8.40;99.90
9103;DHT22;4587;51.434;6.788;2023-02-01T12:20:56;8.40;99.90
9103;DHT22;4587;51.434;6.788;2023-02-01T12:29:12;8.40;99.90
9103;DHT22;4587;51.434;6.788;2023-02-01T12:32:07;8.40;99.90
9103;DHT22;4587;51.434;6.788;2023-02-01T12:42:47;8.50;99.90
9103;DHT22;4587;51.434;6.788;2023-02-01T12:45:15;8.50;99.90
9103;DHT22;4587;51.434;6.788;2023-02-01T12:50:36;8.50;99.90
9103;DHT22;4587;51.434;6.788;2023-02-01T12:53:27;8.60;99.90
9103;DHT22;4587;51.434;6.788;2023-02-01T12:55:57;8.70;99.90
9103;DHT22;4587;51.434;6.788;2023-02-01T12:58:43;8.60;99.90
9103;DHT22;4587;51.434;6.788;2023-02-01T13:04:25;8.70;99.90
9103;DHT22;4587;51.434;6.788;2023-02-01T13:06:57;8.70;99.90
9103;DHT22;4587;51.434;6.788;2023-02-01T13:09:40;8.70;99.90
9103;DHT22;4587;51.434;6.788;2023-02-01T13:12:21;8.70;99.90
9103;DHT22;4587;51.434;6.788;2023-02-01T13:14:53;8.60;99.90
9103;DHT22;4587;51.434;6.788;2023-02-01T13:17:26;8.70;99.90
9103;DHT22;4587;51.434;6.788;2023-02-01T13:20:03;8.70;99.90
9103;DHT22;4587;51.434;6.788;2023-02-01T13:22:40;8.60;99.90
9103;DHT22;4587;51.434;6.788;2023-02-01T13:25:19;8.60;99.90
9103;DHT22;4587;51.434;6.788;2023-02-01T13:27:49;8.60;99.90
9103;DHT22;4587;51.434;6.788;2023-02-01T13:30:25;8.60;99.90
9103;DHT22;4587;51.434;6.788;2023-02-01T13:41:35;8.70;99.90
9103;DHT22;4587;51.434;6.788;2023-02-01T13:44:09;8.70;99.90
9103;DHT22;4587;51.434;6.788;2023-02-01T13:46:44;8.70;99.90
9103;DHT22;4587;51.434;6.788;2023-02-01T13:49:28;8.70;99.90
9103;DHT22;4587;51.434;6.788;2023-02-01T13:51:57;8.80;99.90
9103;DHT22;4587;51.434;6.788;2023-02-01T13:54:41;8.70;99.90
9103;DHT22;4587;51.434;6.788;2023-02-01T13:57:37;8.70;99.90
9103;DHT22;4587;51.434;6.788;2023-02-01T14:10:56;8.90;99.90
9103;DHT22;4587;51.434;6.788;2023-02-01T14:13:36;8.90;99.90
9103;DHT22;4587;51.434;6.788;2023-02-01T14:21:28;8.90;99.90
9103;DHT22;4587;51.434;6.788;2023-02-01T14:24:41;8.90;99.90
9103;DHT22;4587;51.434;6.788;2023-02-01T14:26:50;8.90;99.90
9103;DHT22;4587;51.434;6.788;2023-02-01T14:36:54;9.00;99.90
9103;DHT22;4587;51.434;6.788;2023-02-01T14:55:41;8.90;99.90
9103;DHT22;4587;51.434;6.788;2023-02-01T15:00:52;8.90;99.90
9103;DHT22;4587;51.434;6.788;2023-02-01T15:06:03;8.90;99.90
9103;DHT22;4587;51.434;6.788;2023-02-01T15:08:34;8.90;99.90
9103;DHT22;4587;51.434;6.788;2023-02-01T15:11:08;8.90;99.90
9103;DHT22;4587;51.434;6.788;2023-02-01T15:13:34;8.90;99.90
9103;DHT22;4587;51.434;6.788;2023-02-01T15:16:18;8.90;99.90
9103;DHT22;4587;51.434;6.788;2023-02-01T15:18:43;8.90;99.90
9103;DHT22;4587;51.434;6.788;2023-02-01T15:21:19;9.00;99.90
9103;DHT22;4587;51.434;6.788;2023-02-01T15:23:46;9.00;99.90
9103;DHT22;4587;51.434;6.788;2023-02-01T15:26:28;9.00;99.90
9103;DHT22;4587;51.434;6.788;2023-02-01T15:28:55;9.00;99.90
9103;DHT22;4587;51.434;6.788;2023-02-01T15:31:36;8.90;99.90
9103;DHT22;4587;51.434;6.788;2023-02-01T15:34:03;8.90;99.90
9103;DHT22;4587;51.434;6.788;2023-02-01T15:36:28;8.90;99.90
9103;DHT22;4587;51.434;6.788;2023-02-01T15:39:27;8.90;99.90
9103;DHT22;4587;51.434;6.788;2023-02-01T15:41:57;9.00;99.90
9103;DHT22;4587;51.434;6.788;2023-02-01T15:46:55;8.90;99.90
9103;DHT22;4587;51.434;6.788;2023-02-01T15:49:35;8.90;99.90
9103;DHT22;4587;51.434;6.788;2023-02-01T15:52:02;8.90;99.90
9103;DHT22;4587;51.434;6.788;2023-02-01T15:54:40;8.90;99.90
9103;DHT22;4587;51.434;6.788;2023-02-01T15:57:07;8.80;99.90
9103;DHT22;4587;51.434;6.788;2023-02-01T15:59:42;8.90;99.90
9103;DHT22;4587;51.434;6.788;2023-02-01T16:02:37;8.80;99.90
9103;DHT22;4587;51.434;6.788;2023-02-01T16:05:05;8.80;99.90
9103;DHT22;4587;51.434;6.788;2023-02-01T16:07:33;8.80;99.90
9103;DHT22;4587;51.434;6.788;2023-02-01T16:10:01;8.80;99.90
9103;DHT22;4587;51.434;6.788;2023-02-01T16:15:08;8.80;99.90
9103;DHT22;4587;51.434;6.788;2023-02-01T16:17:33;8.90;99.90
9103;DHT22;4587;51.434;6.788;2023-02-01T16:19:59;8.90;99.90
9103;DHT22;4587;51.434;6.788;2023-02-01T16:22:25;8.90;99.90
9103;DHT22;4587;51.434;6.788;2023-02-01T16:24:50;8.90;99.90
9103;DHT22;4587;51.434;6.788;2023-02-01T16:27:16;8.80;99.90
9103;DHT22;4587;51.434;6.788;2023-02-01T16:29:41;8.70;99.90
9103;DHT22;4587;51.434;6.788;2023-02-01T16:32:16;8.70;99.90
9103;DHT22;4587;51.434;6.788;2023-02-01T16:34:42;8.70;99.90
9103;DHT22;4587;51.434;6.788;2023-02-01T16:37:21;8.70;99.90
9103;DHT22;4587;51.434;6.788;2023-02-01T16:39:47;8.70;99.90
9103;DHT22;4587;51.434;6.788;2023-02-01T16:42:14;8.60;99.90
9103;DHT22;4587;51.434;6.788;2023-02-01T16:44:40;8.60;99.90
9103;DHT22;4587;51.434;6.788;2023-02-01T16:47:17;8.70;99.90
9103;DHT22;4587;51.434;6.788;2023-02-01T16:49:44;8.60;99.90
9103;DHT22;4587;51.434;6.788;2023-02-01T16:52:17;8.60;99.90
9103;DHT22;4587;51.434;6.788;2023-02-01T16:54:43;8.70;99.90
9103;DHT22;4587;51.434;6.788;2023-02-01T16:57:13;8.70;99.90
9103;DHT22;4587;51.434;6.788;2023-02-01T16:59:40;8.70;99.90
9103;DHT22;4587;51.434;6.788;2023-02-01T17:02:09;8.70;99.90
9103;DHT22;4587;51.434;6.788;2023-02-01T17:04:35;8.70;99.90
9103;DHT22;4587;51.434;6.788;2023-02-01T17:07:01;8.60;99.90
9103;DHT22;4587;51.434;6.788;2023-02-01T17:09:36;8.70;99.90
9103;DHT22;4587;51.434;6.788;2023-02-01T17:12:03;8.60;99.90
9103;DHT22;4587;51.434;6.788;2023-02-01T17:14:38;8.70;99.90
9103;DHT22;4587;51.434;6.788;2023-02-01T17:17:05;8.70;99.90
9103;DHT22;4587;51.434;6.788;2023-02-01T17:19:33;8.70;99.90
9103;DHT22;4587;51.434;6.788;2023-02-01T17:21:58;8.70;99.90
9103;DHT22;4587;51.434;6.788;2023-02-01T17:24:26;8.80;99.90
9103;DHT22;4587;51.434;6.788;2023-02-01T17:26:52;8.70;99.90
9103;DHT22;4587;51.434;6.788;2023-02-01T17:29:18;8.70;99.90
9103;DHT22;4587;51.434;6.788;2023-02-01T17:31:48;8.60;99.90
9103;DHT22;4587;51.434;6.788;2023-02-01T17:34:15;8.60;99.90
9103;DHT22;4587;51.434;6.788;2023-02-01T17:36:42;8.50;99.90
9103;DHT22;4587;51.434;6.788;2023-02-01T17:39:08;8.50;99.90
9103;DHT22;4587;51.434;6.788;2023-02-01T17:41:35;8.60;99.90
9103;DHT22;4587;51.434;6.788;2023-02-01T17:44:02;8.70;99.90
9103;DHT22;4587;51.434;6.788;2023-02-01T17:46:27;8.70;99.90
9103;DHT22;4587;51.434;6.788;2023-02-01T17:48:55;8.70;99.90
9103;DHT22;4587;51.434;6.788;2023-02-01T17:51:25;8.70;99.90
9103;DHT22;4587;51.434;6.788;2023-02-01T17:53:52;8.70;99.90
9103;DHT22;4587;51.434;6.788;2023-02-01T17:56:21;8.60;99.90
9103;DHT22;4587;51.434;6.788;2023-02-01T17:58:47;8.60;99.90
9103;DHT22;4587;51.434;6.788;2023-02-01T18:01:17;8.60;99.90
9103;DHT22;4587;51.434;6.788;2023-02-01T18:03:43;8.60;99.90
9103;DHT22;4587;51.434;6.788;2023-02-01T18:06:17;8.60;99.90
9103;DHT22;4587;51.434;6.788;2023-02-01T18:08:43;8.60;99.90
9103;DHT22;4587;51.434;6.788;2023-02-01T18:11:16;8.60;99.90
9103;DHT22;4587;51.434;6.788;2023-02-01T18:13:42;8.70;99.90
9103;DHT22;4587;51.434;6.788;2023-02-01T18:16:22;8.60;99.90
9103;DHT22;4587;51.434;6.788;2023-02-01T18:18:48;8.60;99.90
9103;DHT22;4587;51.434;6.788;2023-02-01T18:21:16;8.60;99.90
9103;DHT22;4587;51.434;6.788;2023-02-01T18:23:42;8.50;99.90
9103;DHT22;4587;51.434;6.788;2023-02-01T18:26:10;8.50;99.90
9103;DHT22;4587;51.434;6.788;2023-02-01T18:28:36;8.50;99.90
9103;DHT22;4587;51.434;6.788;2023-02-01T18:31:04;8.60;99.90
9103;DHT22;4587;51.434;6.788;2023-02-01T18:33:30;8.50;99.90
9103;DHT22;4587;51.434;6.788;2023-02-01T18:35:56;8.60;99.90
9103;DHT22;4587;51.434;6.788;2023-02-01T18:38:22;8.60;99.90
9103;DHT22;4587;51.434;6.788;2023-02-01T18:40:50;8.60;99.90
9103;DHT22;4587;51.434;6.788;2023-02-01T18:43:16;8.70;99.90
9103;DHT22;4587;51.434;6.788;2023-02-01T18:45:43;8.60;99.90
9103;DHT22;4587;51.434;6.788;2023-02-01T18:48:11;8.70;99.90
9103;DHT22;4587;51.434;6.788;2023-02-01T18:50:39;8.70;99.90
9103;DHT22;4587;51.434;6.788;2023-02-01T18:53:09;8.60;99.90
9103;DHT22;4587;51.434;6.788;2023-02-01T18:55:34;8.70;99.90
9103;DHT22;4587;51.434;6.788;2023-02-01T18:58:02;8.70;99.90
9103;DHT22;4587;51.434;6.788;2023-02-01T19:00:28;8.70;99.90